createdAt,value
2019-06-20T14:24:02.210Z,23.80
2019-06-20T14:26:31.007Z,23.80
2019-06-20T14:28:59.864Z,23.80
2019-06-20T14:31:28.641Z,23.90
2019-06-20T14:33:57.533Z,23.90
2019-06-20T14:36:26.301Z,23.90
2019-06-20T14:38:55.130Z,23.90
2019-06-20T14:41:23.950Z,23.90
2019-06-20T14:43:53.930Z,23.90
2019-06-20T14:46:22.797Z,23.90
2019-06-20T14:48:51.630Z,23.80
2019-06-20T14:51:20.431Z,23.80
2019-06-20T14:53:49.491Z,23.80
2019-06-20T14:56:18.403Z,23.80
2019-06-20T14:58:47.215Z,23.80
2019-06-20T15:01:16.025Z,23.80
2019-06-20T15:03:47.065Z,23.80
2019-06-20T15:08:38.094Z,23.80
2019-06-20T15:11:06.927Z,23.80
2019-06-20T15:15:41.565Z,23.80
2019-06-20T15:18:11.238Z,23.80
2019-06-20T15:20:40.959Z,23.80
2019-06-20T15:23:11.764Z,23.80
2019-06-20T15:25:40.858Z,23.80
2019-06-20T15:28:10.916Z,23.80
2019-06-20T15:30:40.739Z,23.80
2019-06-20T15:33:10.940Z,23.80
2019-06-20T15:35:41.109Z,23.80
2019-06-20T15:38:10.808Z,23.80
2019-06-20T15:40:41.030Z,23.90
2019-06-20T15:43:11.342Z,23.80
2019-06-20T15:45:41.399Z,23.80
2019-06-20T15:48:11.102Z,23.80
2019-06-20T15:50:41.611Z,23.90
2019-06-20T15:53:11.646Z,23.80
2019-06-20T15:55:42.309Z,23.80
2019-06-20T15:58:12.752Z,23.90
2019-06-20T16:00:42.978Z,23.90
2019-06-20T16:03:14.628Z,23.90
2019-06-20T16:05:45.027Z,23.90
2019-06-20T16:08:14.747Z,23.80
2019-06-20T16:10:45.047Z,23.80
2019-06-20T16:13:14.767Z,23.80
2019-06-20T16:15:44.879Z,23.80
2019-06-20T16:18:15.107Z,23.90
2019-06-20T16:20:45.339Z,23.90
2019-06-20T16:23:15.023Z,23.90
2019-06-20T16:25:44.807Z,23.90
2019-06-20T16:28:14.899Z,23.90
2019-06-20T16:30:45.473Z,23.90
2019-06-20T16:33:24.586Z,23.90
2019-06-20T16:35:46.975Z,23.90
2019-06-20T16:38:17.035Z,23.90
2019-06-20T16:40:48.141Z,23.90
2019-06-20T16:43:18.473Z,23.90
2019-06-20T16:50:12.539Z,24.10
2019-06-20T16:52:42.743Z,24.00
2019-06-20T16:55:12.535Z,24.00
2019-06-20T16:57:42.987Z,23.90
2019-06-20T17:00:15.656Z,23.90
2019-06-20T17:02:46.008Z,23.90
2019-06-20T17:05:16.995Z,23.90
2019-06-20T17:07:47.855Z,23.80
2019-06-20T17:10:18.032Z,23.80
2019-06-20T17:12:48.833Z,23.80
2019-06-20T17:15:17.557Z,23.80
2019-06-20T17:17:47.343Z,23.80
2019-06-20T17:20:17.376Z,23.80
2019-06-20T17:22:49.977Z,23.80
2019-06-20T17:25:22.180Z,23.70
2019-06-20T17:27:52.656Z,23.70
2019-06-20T17:30:22.657Z,23.70
2019-06-20T17:32:53.383Z,23.70
2019-06-20T17:35:23.696Z,23.80
2019-06-20T17:37:54.367Z,23.70
2019-06-20T17:40:24.968Z,23.70
2019-06-20T17:42:55.224Z,23.70
2019-06-20T17:45:25.930Z,23.80
2019-06-20T17:47:54.526Z,23.70
2019-06-20T17:50:25.887Z,23.70
2019-06-20T17:52:58.039Z,23.70
2019-06-20T17:55:29.022Z,23.70
2019-06-20T17:57:59.308Z,23.80
2019-06-20T18:00:29.703Z,23.70
2019-06-20T18:03:00.472Z,23.70
2019-06-20T18:05:30.609Z,23.70
2019-06-20T18:08:14.090Z,23.80
2019-06-20T18:10:36.483Z,23.80
2019-06-20T18:13:08.111Z,23.70
2019-06-20T18:15:39.432Z,23.70
2019-06-20T18:18:09.409Z,23.70
2019-06-20T18:20:39.864Z,23.80
2019-06-20T18:23:10.155Z,23.70
2019-06-20T18:25:40.963Z,23.70
2019-06-20T18:28:09.709Z,23.70
2019-06-20T18:30:45.170Z,23.70
2019-06-20T18:33:16.019Z,23.70
2019-06-20T18:35:46.634Z,23.70
2019-06-20T18:38:16.546Z,23.50
2019-06-20T18:40:46.825Z,23.40
2019-06-20T18:43:17.383Z,23.30
2019-06-20T18:45:49.637Z,23.20
2019-06-20T18:48:20.214Z,23.20
2019-06-20T18:50:50.366Z,23.20
2019-06-20T18:53:20.848Z,23.30
2019-06-20T18:55:51.807Z,23.30
2019-06-20T18:58:22.699Z,23.40
2019-06-20T19:00:52.775Z,23.40
2019-06-20T19:03:24.022Z,23.40
2019-06-20T19:05:54.309Z,23.50
2019-06-20T19:08:25.460Z,23.50
2019-06-20T19:10:55.662Z,23.50
2019-06-20T19:13:28.221Z,23.50
2019-06-20T19:15:59.607Z,23.50
2019-06-20T19:18:29.923Z,23.50
2019-06-20T19:21:01.240Z,23.50
2019-06-20T19:23:31.807Z,23.60
2019-06-20T19:26:01.597Z,23.60
2019-06-20T19:28:31.829Z,23.60
2019-06-20T19:31:01.783Z,23.60
2019-06-20T19:33:32.075Z,23.60
2019-06-20T19:36:03.107Z,23.60
2019-06-20T19:38:35.322Z,23.60
2019-06-20T19:41:05.607Z,23.60
2019-06-20T19:43:35.683Z,23.60
2019-06-20T19:46:05.899Z,23.60
2019-06-20T19:48:36.884Z,23.60
2019-06-20T19:51:07.406Z,23.70
2019-06-20T19:53:37.901Z,23.70
2019-06-20T19:56:08.999Z,23.70
2019-06-20T19:58:39.166Z,23.60
2019-06-20T20:01:09.048Z,23.60
2019-06-20T20:03:39.654Z,23.60
2019-06-20T20:06:10.067Z,23.60
2019-06-20T20:08:43.283Z,23.60
2019-06-20T20:11:13.921Z,23.60
2019-06-20T20:13:46.298Z,23.60
2019-06-20T20:16:19.642Z,23.60
2019-06-20T20:18:51.098Z,23.60
2019-06-20T20:21:22.883Z,23.60
2019-06-20T20:23:52.611Z,23.60
2019-06-20T20:26:23.914Z,23.60
2019-06-20T20:28:54.347Z,23.60
2019-06-20T20:31:24.752Z,23.60
2019-06-20T20:33:55.864Z,23.60
2019-06-20T20:36:25.796Z,23.60
2019-06-20T20:38:56.222Z,23.60
2019-06-20T20:41:26.490Z,23.60
2019-06-20T20:43:57.284Z,23.60
2019-06-20T20:46:31.864Z,23.60
2019-06-20T20:49:02.385Z,23.60
2019-06-20T20:51:33.473Z,23.60
2019-06-20T20:54:04.818Z,23.60
2019-06-20T20:56:35.075Z,23.60
2019-06-20T20:59:05.409Z,23.60
2019-06-20T21:01:35.866Z,23.60
2019-06-20T21:04:06.259Z,23.60
2019-06-20T21:20:06.590Z,24.30
2019-06-20T21:22:37.085Z,24.40
2019-06-20T21:25:09.379Z,24.00
2019-06-20T21:27:39.819Z,23.70
2019-06-20T21:30:10.465Z,23.50
2019-06-20T21:32:40.553Z,23.50
2019-06-20T21:35:12.091Z,23.40
2019-06-20T21:37:43.328Z,23.40
2019-06-20T21:40:14.287Z,23.40
2019-06-20T21:42:44.704Z,23.40
2019-06-20T21:45:14.951Z,23.30
2019-06-20T21:47:45.815Z,23.30
2019-06-20T21:50:15.131Z,23.30
2019-06-20T21:52:45.270Z,23.30
2019-06-20T21:55:15.751Z,23.30
2019-06-20T21:57:46.126Z,23.30
2019-06-20T22:00:22.428Z,23.30
2019-06-20T22:02:52.837Z,23.30
2019-06-20T22:05:23.446Z,23.30
2019-06-20T22:07:53.570Z,23.30
2019-06-20T22:10:24.179Z,23.30
2019-06-20T22:12:55.254Z,23.30
2019-06-20T22:15:25.503Z,23.30
2019-06-20T22:17:55.607Z,23.30
2019-06-20T22:20:26.851Z,23.30
2019-06-20T22:22:57.575Z,23.30
2019-06-20T22:25:28.178Z,23.30
2019-06-20T22:27:58.310Z,23.30
2019-06-20T22:30:44.238Z,23.30
2019-06-20T22:33:15.044Z,23.30
2019-06-20T22:35:45.934Z,23.30
2019-06-20T22:38:15.661Z,23.30
2019-06-20T22:40:46.242Z,23.30
2019-06-20T22:43:16.694Z,23.30
2019-06-20T22:45:46.878Z,23.30
2019-06-20T22:48:17.362Z,23.30
2019-06-20T22:50:47.427Z,23.30
2019-06-20T22:53:17.498Z,23.30
2019-06-20T22:55:48.317Z,23.30
2019-06-20T22:58:17.134Z,23.30
2019-06-20T23:00:47.194Z,23.30
2019-06-20T23:03:17.793Z,23.30
2019-06-20T23:05:47.759Z,23.30
2019-06-20T23:08:18.317Z,23.30
2019-06-20T23:10:48.534Z,23.30
2019-06-20T23:13:19.046Z,23.30
2019-06-20T23:15:49.447Z,23.30
2019-06-20T23:18:19.944Z,23.30
2019-06-20T23:21:04.025Z,23.30
2019-06-20T23:23:23.098Z,23.30
2019-06-20T23:25:54.879Z,23.30
2019-06-20T23:28:24.987Z,23.30
2019-06-20T23:30:54.866Z,23.30
2019-06-20T23:33:24.942Z,23.30
2019-06-20T23:35:55.315Z,23.30
2019-06-20T23:38:25.454Z,23.30
2019-06-20T23:40:55.451Z,23.30
2019-06-20T23:43:26.046Z,23.30
2019-06-20T23:45:56.469Z,23.30
2019-06-20T23:48:26.864Z,23.30
2019-06-20T23:50:56.854Z,23.30
2019-06-20T23:53:27.920Z,23.30
2019-06-20T23:55:58.006Z,23.30
2019-06-20T23:58:28.382Z,23.30
